Boston, Massachusetts
Traffic Map
Current Weather Conditions
Boston, Massachusetts
Scattered Clouds
Scattered Clouds
22°
Feels Like: 22°
Wind Chill: 22° Ceiling: Unl
Heat Index: 22° Visibility: 10mi
Dew Point: 16° Wind: 12mph
Humidity: 70% Direction: 90° (E)
Pressure: 29.98in Gusts: 0mph
Raw Report DataKBOS 301854Z 09010KT 10SM FEW035 SCT250 22/16 A2998 RMK AO2 SLP151 T02170161
Traffic Incident Summary
Active as of:
Severity:
Category:
InformationThere was an issue retrieving the traffic information for this location. Please try a different location or try again shortly.
Advertisements
Track Severe Weather on mobile